Terminal Aerodrome Forecast
Issued by NWS Grand Forks, ND

Home | Current Version | Previous Version | Graphics & Text | Print | Product List | Glossary On
Versions: 1 2 3 4 5 6 7 8 9 10 11 12 13 14 15 16
291
FTUS43 KFGF 192209 AAD
TAFFAR
TAF AMD
KFAR 192209Z 1922/2018 20012KT P6SM SCT100
     FM200200 VRB06KT P6SM FEW090
     FM201500 09004KT P6SM SCT150=

USA.gov is the U.S. government's official web portal to all federal, state and local government web resources and services.